Time;durP1;ratioP1;P1;durP2;ratioP2;P2;SDS_P1;SDS_P2;PMS_P1;PMS_P2;Temp;Humidity;BMP_temperature;BMP_pressure;BME280_temperature;BME280_humidity;BME280_pressure;Samples;Min_cycle;Max_cycle;Signal;HPM_P1;HPM_P2
2021/06/04 00:01:50;;;;;;;12.88;9.38;;;;;;;13.19;62.15;101626.43;1772821;80;25688;-75
2021/06/04 00:04:18;;;;;;;13.95;8.85;;;;;;;13.17;62.27;101620.39;1768005;80;28216;-74
2021/06/04 00:06:45;;;;;;;13.53;8.80;;;;;;;13.15;62.48;101625.43;1717356;80;25891;-75
2021/06/04 00:09:15;;;;;;;9.75;8.33;;;;;;;13.14;62.57;101624.27;1717389;80;25945;-75
2021/06/04 00:11:47;;;;;;;13.32;9.08;;;;;;;13.12;62.56;101628.50;1774532;80;25830;-75
2021/06/04 00:14:22;;;;;;;16.35;8.35;;;;;;;13.10;62.65;101625.65;1776410;80;25941;-75
2021/06/04 00:16:55;;;;;;;12.05;8.13;;;;;;;13.05;62.67;101627.52;1777329;80;27543;-75
2021/06/04 00:19:28;;;;;;;10.82;7.90;;;;;;;12.96;62.79;101624.52;1735304;80;25985;-75
2021/06/04 00:22:05;;;;;;;12.73;8.70;;;;;;;12.86;62.70;101619.87;1777495;80;25937;-74
2021/06/04 00:24:36;;;;;;;12.10;7.95;;;;;;;12.76;62.85;101617.08;1778271;80;26535;-75
2021/06/04 00:27:05;;;;;;;10.18;8.05;;;;;;;12.59;63.45;101619.02;1765899;78;31819;-74
2021/06/04 00:29:33;;;;;;;11.22;8.58;;;;;;;12.59;63.45;101619.02;1734169;80;26996;-75
2021/06/04 00:32:00;;;;;;;12.70;8.28;;;;;;;12.61;63.17;101629.08;1775883;80;26162;-74
2021/06/04 00:34:28;;;;;;;11.03;8.75;;;;;;;12.56;63.25;101626.07;1742452;80;25920;-74
2021/06/04 00:36:55;;;;;;;11.03;8.18;;;;;;;12.50;63.36;101629.46;1726213;80;26811;-74
2021/06/04 00:39:27;;;;;;;13.90;8.98;;;;;;;12.44;63.36;101623.94;1719950;80;25373;-74
2021/06/04 00:42:02;;;;;;;11.30;8.15;;;;;;;12.40;63.51;101622.94;1774146;80;27512;-74
2021/06/04 00:44:33;;;;;;;12.33;9.20;;;;;;;12.35;63.46;101625.82;1757383;80;25931;-75
2021/06/04 00:47:03;;;;;;;14.05;8.40;;;;;;;12.28;63.52;101624.33;1751544;80;25909;-74
2021/06/04 00:49:30;;;;;;;9.78;8.03;;;;;;;12.22;63.50;101623.69;1722634;80;26532;-75
2021/06/04 00:52:07;;;;;;;11.88;8.05;;;;;;;12.17;63.76;101627.88;1728124;80;25874;-74
2021/06/04 00:54:36;;;;;;;10.03;8.25;;;;;;;12.16;63.86;101628.91;1778536;80;27506;-75
2021/06/04 00:57:05;;;;;;;10.08;8.13;;;;;;;12.13;63.83;101621.17;1720793;80;25814;-74
2021/06/04 00:59:37;;;;;;;9.85;7.03;;;;;;;12.11;64.10;101621.36;1758149;80;25894;-74
2021/06/04 01:02:13;;;;;;;15.63;8.43;;;;;;;12.09;64.12;101626.06;1772696;80;26433;-74
2021/06/04 01:04:41;;;;;;;8.53;7.62;;;;;;;12.08;64.17;101620.34;1776082;80;26407;-74
2021/06/04 01:07:19;;;;;;;12.35;9.03;;;;;;;12.07;64.16;101621.88;1747772;80;28199;-74
2021/06/04 01:10:33;;;;;;;12.15;8.35;;;;;;;12.02;64.17;101619.70;1768380;80;26451;-75
2021/06/04 01:13:18;;;;;;;10.68;8.30;;;;;;;11.98;64.22;101615.68;1771966;80;25857;-74
2021/06/04 01:16:34;;;;;;;9.28;7.70;;;;;;;11.93;64.44;101618.03;1735095;82;25926;-75
2021/06/04 01:19:41;;;;;;;8.78;7.40;;;;;;;11.88;64.46;101618.22;1741363;80;25808;-75
2021/06/04 01:22:16;;;;;;;11.88;8.65;;;;;;;11.85;64.91;101618.05;1737554;80;28416;-75
2021/06/04 01:25:01;;;;;;;9.25;7.72;;;;;;;11.83;65.11;101617.88;1693886;80;25892;-74
2021/06/04 01:27:36;;;;;;;12.00;8.78;;;;;;;11.81;65.14;101610.00;1770605;80;25787;-75
2021/06/04 01:30:33;;;;;;;13.32;7.90;;;;;;;11.77;65.05;101614.54;1774846;80;26621;-75
2021/06/04 01:33:10;;;;;;;12.18;8.43;;;;;;;11.70;64.92;101622.42;1748605;80;26559;-74
2021/06/04 01:35:43;;;;;;;11.90;9.13;;;;;;;11.60;65.04;101617.72;1780592;79;28156;-74
2021/06/04 01:38:17;;;;;;;12.53;8.38;;;;;;;11.56;65.16;101621.25;1769755;80;25892;-74
2021/06/04 01:40:50;;;;;;;9.10;8.08;;;;;;;11.52;65.08;101617.73;1760309;80;25966;-74
2021/06/04 01:43:25;;;;;;;12.10;9.00;;;;;;;11.47;65.28;101619.56;1737576;80;26122;-75
2021/06/04 01:46:09;;;;;;;9.63;8.23;;;;;;;11.44;65.32;101609.16;1764307;80;26628;-74
2021/06/04 01:48:43;;;;;;;11.88;8.48;;;;;;;11.38;65.31;101613.86;1771166;80;27519;-74
2021/06/04 01:51:29;;;;;;;9.28;7.92;;;;;;;11.30;65.43;101619.72;1741920;80;26025;-75
2021/06/04 01:54:12;;;;;;;10.70;8.50;;;;;;;11.26;65.48;101621.06;1714398;80;25775;-75
2021/06/04 01:56:52;;;;;;;13.00;8.45;;;;;;;11.20;65.65;101619.05;1717165;80;26439;-74
2021/06/04 01:59:29;;;;;;;9.75;8.73;;;;;;;11.13;65.72;101618.88;1714547;82;25826;-74
2021/06/04 02:01:59;;;;;;;12.50;8.18;;;;;;;11.10;65.74;101627.77;1714993;83;27450;-74
2021/06/04 02:04:38;;;;;;;10.63;8.08;;;;;;;11.04;65.63;101622.53;1771043;80;26149;-74
2021/06/04 02:07:10;;;;;;;9.40;8.33;;;;;;;11.05;65.81;101624.72;1741752;80;25792;-74
2021/06/04 02:09:38;;;;;;;10.30;8.35;;;;;;;11.01;65.90;101623.37;1741107;80;26057;-75
2021/06/04 02:12:10;;;;;;;12.73;8.80;;;;;;;11.00;65.88;101624.37;1739429;80;25928;-74
2021/06/04 02:14:44;;;;;;;13.68;8.68;;;;;;;10.95;65.88;101622.17;1709080;82;27541;-74
2021/06/04 02:17:42;;;;;;;9.68;8.48;;;;;;;10.91;66.06;101622.17;1721599;80;26444;-74
2021/06/04 02:20:29;;;;;;;8.83;7.92;;;;;;;10.88;66.29;101615.81;1773058;79;25786;-75
2021/06/04 02:23:30;;;;;;;10.88;8.80;;;;;;;10.86;66.38;101619.98;1745032;80;26150;-74
2021/06/04 02:26:31;;;;;;;12.58;8.20;;;;;;;10.82;66.66;101613.77;1771944;80;25812;-74
2021/06/04 02:29:21;;;;;;;14.87;9.40;;;;;;;10.83;66.86;101618.98;1740088;80;28129;-73
2021/06/04 02:32:05;;;;;;;13.93;8.95;;;;;;;10.84;67.01;101615.28;1744092;80;26198;-74
2021/06/04 02:34:47;;;;;;;10.88;9.00;;;;;;;10.81;66.99;101616.97;1763926;80;25837;-74
2021/06/04 02:37:27;;;;;;;12.30;8.10;;;;;;;10.73;66.95;101614.24;1768968;80;25816;-74
2021/06/04 02:40:00;;;;;;;13.53;9.43;;;;;;;10.71;66.98;101614.91;1769765;80;25781;-74
2021/06/04 02:42:35;;;;;;;15.98;8.48;;;;;;;10.72;67.24;101615.75;1770593;80;28771;-74
2021/06/04 02:45:11;;;;;;;14.38;9.48;;;;;;;10.73;67.16;101613.43;1759745;80;25348;-74
2021/06/04 02:47:49;;;;;;;12.28;8.30;;;;;;;10.72;67.35;101612.58;1771712;79;26023;-74
2021/06/04 02:50:40;;;;;;;10.55;8.68;;;;;;;10.70;67.27;101619.95;1790590;78;26334;-74
2021/06/04 02:53:24;;;;;;;9.53;8.48;;;;;;;10.64;67.31;101615.24;1774113;78;25790;-74
2021/06/04 02:56:12;;;;;;;9.60;8.53;;;;;;;10.59;67.34;101618.05;1766857;80;27711;-74
2021/06/04 02:58:44;;;;;;;16.17;9.08;;;;;;;10.57;67.54;101615.55;1766031;80;25771;-74
2021/06/04 03:01:14;;;;;;;11.03;8.43;;;;;;;10.56;67.82;101612.51;1710872;80;26298;-74
2021/06/04 03:03:47;;;;;;;;;;;;;;;10.55;67.87;101617.55;1719873;81;25854;-74
2021/06/04 03:06:13;;;;;;;11.22;8.48;;;;;;;10.53;68.13;101616.02;1756530;80;25996;-74
2021/06/04 03:08:43;;;;;;;10.58;8.95;;;;;;;10.51;68.31;101609.50;1771367;80;27562;-74
2021/06/04 03:11:14;;;;;;;12.10;9.00;;;;;;;10.56;68.37;101616.53;1705320;81;25867;-74
2021/06/04 03:13:41;;;;;;;12.00;9.08;;;;;;;10.59;68.32;101612.20;1715272;81;25934;-74
2021/06/04 03:16:14;;;;;;;10.85;9.10;;;;;;;10.59;68.38;101613.54;1679666;81;26025;-74
2021/06/04 03:18:47;;;;;;;10.60;8.65;;;;;;;10.58;68.50;101617.23;1722987;82;25826;-74
2021/06/04 03:21:20;;;;;;;9.68;8.65;;;;;;;10.63;68.60;101621.59;1702802;82;28142;-74
2021/06/04 03:23:47;;;;;;;9.78;8.78;;;;;;;10.71;68.50;101613.56;1719396;82;25801;-74
2021/06/04 03:26:20;;;;;;;12.10;9.20;;;;;;;10.81;68.69;101623.67;1709483;82;25782;-73
2021/06/04 03:28:50;;;;;;;10.60;9.08;;;;;;;10.88;68.98;101622.52;1721606;82;26960;-74
2021/06/04 03:31:20;;;;;;;12.68;10.80;;;;;;;10.95;68.89;101623.52;1677053;82;25983;-74
2021/06/04 03:33:48;;;;;;;;;;;;;;;11.04;68.92;101618.52;1694638;82;27299;-74
2021/06/04 03:36:22;;;;;;;11.35;9.38;;;;;;;11.14;69.14;101615.70;1716773;82;26455;-74
2021/06/04 03:38:50;;;;;;;11.88;9.45;;;;;;;11.19;69.08;101621.38;1695493;82;25649;-75
2021/06/04 03:41:22;;;;;;;12.45;9.20;;;;;;;11.28;69.04;101624.41;1680171;82;26483;-74
2021/06/04 03:43:51;;;;;;;11.53;9.38;;;;;;;11.35;69.11;101622.26;1698417;82;25838;-75
2021/06/04 03:46:18;;;;;;;12.55;9.80;;;;;;;11.43;69.19;101620.91;1716076;82;27595;-75
2021/06/04 03:48:45;;;;;;;12.18;9.93;;;;;;;11.52;69.14;101621.25;1685031;83;26443;-75
2021/06/04 03:51:18;;;;;;;10.82;9.18;;;;;;;11.56;69.20;101621.25;1691516;82;25908;-75
2021/06/04 03:53:45;;;;;;;11.10;9.30;;;;;;;11.63;69.19;101626.78;1688098;82;26419;-74
2021/06/04 03:56:15;;;;;;;9.98;8.98;;;;;;;11.72;69.38;101628.98;1716529;82;25804;-75
2021/06/04 03:58:43;;;;;;;10.78;9.68;;;;;;;11.81;69.37;101619.41;1693031;82;27495;-75
2021/06/04 04:01:16;;;;;;;15.03;10.05;;;;;;;11.91;69.31;101619.23;1674887;82;25840;-75
2021/06/04 04:03:43;;;;;;;13.55;10.48;;;;;;;12.01;69.54;101617.19;1672977;83;25871;-74
2021/06/04 04:06:10;;;;;;;10.48;9.48;;;;;;;12.11;69.77;101623.20;1740598;81;26303;-75
2021/06/04 04:08:38;;;;;;;10.40;9.20;;;;;;;12.21;69.97;101620.65;1675193;83;26556;-75
2021/06/04 04:11:05;;;;;;;13.08;10.40;;;;;;;12.34;69.89;101620.10;1653877;83;28420;-74
2021/06/04 04:13:33;;;;;;;11.18;10.08;;;;;;;12.45;70.06;101614.85;1691089;80;25917;-75
2021/06/04 04:16:01;;;;;;;11.10;10.00;;;;;;;12.57;70.21;101616.16;1770874;80;25775;-75
2021/06/04 04:18:29;;;;;;;12.82;10.80;;;;;;;12.68;69.92;101619.28;1715412;80;25877;-75
2021/06/04 04:21:00;;;;;;;14.33;10.88;;;;;;;12.77;70.24;101625.45;1693660;80;25987;-75
2021/06/04 04:23:33;;;;;;;12.03;10.48;;;;;;;12.85;70.49;101620.88;1714147;80;27511;-75
2021/06/04 04:26:00;;;;;;;14.80;11.15;;;;;;;12.93;70.40;101618.66;1733407;80;25891;-75
2021/06/04 04:28:32;;;;;;;18.07;10.28;;;;;;;12.99;70.22;101626.86;1785900;78;26499;-75
2021/06/04 04:31:01;;;;;;;12.20;9.78;;;;;;;13.02;70.29;101622.45;1720737;80;25835;-75
2021/06/04 04:33:29;;;;;;;11.70;9.90;;;;;;;13.09;70.58;101623.95;1715087;80;25763;-75
2021/06/04 04:35:56;;;;;;;17.05;11.78;;;;;;;13.19;70.49;101618.36;1766908;80;27549;-75
2021/06/04 04:38:24;;;;;;;15.63;11.70;;;;;;;13.28;70.66;101620.80;1740371;80;25837;-75
2021/06/04 04:41:00;;;;;;;17.37;11.88;;;;;;;13.38;70.50;101620.06;1707630;80;25945;-75
2021/06/04 04:43:31;;;;;;;17.23;11.85;;;;;;;13.49;70.73;101616.95;1767111;80;26831;-75
2021/06/04 04:45:59;;;;;;;16.23;12.60;;;;;;;13.62;70.40;101617.69;1768468;80;25847;-75
2021/06/04 04:48:27;;;;;;;17.32;12.53;;;;;;;13.74;70.48;101619.75;1737099;80;27990;-74
2021/06/04 04:50:55;;;;;;;18.90;11.85;;;;;;;13.87;69.91;101613.23;1738359;80;25947;-75
2021/06/04 04:53:23;;;;;;;16.32;11.68;;;;;;;13.99;69.32;101620.34;1708339;82;25805;-75
2021/06/04 04:55:51;;;;;;;11.90;10.58;;;;;;;14.12;69.83;101618.34;1737423;82;25801;-75
2021/06/04 04:58:19;;;;;;;18.45;12.03;;;;;;;14.25;69.54;101612.65;1733676;80;25819;-74
2021/06/04 05:00:46;;;;;;;21.07;11.95;;;;;;;14.38;69.29;101613.37;1742368;80;27672;-75
2021/06/04 05:03:16;;;;;;;15.78;12.25;;;;;;;14.50;69.17;101610.01;1766305;80;25824;-75
2021/06/04 05:05:43;;;;;;;15.13;11.20;;;;;;;14.62;69.16;101619.31;1769184;80;25745;-74
2021/06/04 05:08:10;;;;;;;15.48;10.90;;;;;;;14.76;69.32;101615.40;1737025;80;25829;-75
2021/06/04 05:10:38;;;;;;;19.77;11.63;;;;;;;14.88;69.26;101613.91;1713375;80;25890;-75
2021/06/04 05:13:07;;;;;;;15.13;11.45;;;;;;;15.00;68.75;101613.72;1724472;80;27138;-75
2021/06/04 05:15:38;;;;;;;14.53;11.43;;;;;;;15.13;68.55;101615.22;1762987;80;25872;-75
2021/06/04 05:18:09;;;;;;;16.65;11.88;;;;;;;15.26;68.34;101614.84;1728382;80;25870;-75
2021/06/04 05:20:38;;;;;;;19.60;12.37;;;;;;;15.38;67.59;101613.80;1741897;80;26001;-75
2021/06/04 05:23:06;;;;;;;14.70;10.80;;;;;;;15.48;67.65;101614.36;1741864;80;25878;-75
2021/06/04 05:25:38;;;;;;;18.95;11.10;;;;;;;15.60;67.55;101613.31;1768337;80;27575;-75
2021/06/04 05:28:07;;;;;;;14.30;11.48;;;;;;;15.69;67.03;101606.73;1738367;81;25958;-75
2021/06/04 05:30:39;;;;;;;16.35;11.03;;;;;;;15.80;67.05;101610.27;1720344;80;25944;-75
2021/06/04 05:33:10;;;;;;;15.83;10.60;;;;;;;15.91;67.02;101610.54;1716760;80;25876;-75
2021/06/04 05:35:38;;;;;;;20.35;11.48;;;;;;;16.03;66.87;101608.14;1696396;82;25798;-74
2021/06/04 05:38:05;;;;;;;18.82;11.03;;;;;;;16.16;66.65;101610.94;1700315;83;28191;-75
2021/06/04 05:40:37;;;;;;;19.48;11.78;;;;;;;16.28;66.74;101608.48;1667367;82;25941;-75
2021/06/04 05:43:08;;;;;;;15.32;11.55;;;;;;;16.41;66.68;101612.11;1731410;82;25843;-75
2021/06/04 05:45:38;;;;;;;19.27;11.20;;;;;;;16.54;66.15;101612.72;1718468;83;26597;-75
2021/06/04 05:48:07;;;;;;;16.62;11.15;;;;;;;16.68;66.99;101610.41;1703477;82;26103;-75
2021/06/04 05:50:38;;;;;;;17.02;12.30;;;;;;;16.81;65.91;101611.78;1702431;82;27391;-75
2021/06/04 05:53:10;;;;;;;17.50;9.78;;;;;;;16.94;66.35;101609.97;1714781;83;25790;-75
2021/06/04 05:55:39;;;;;;;16.07;11.60;;;;;;;17.10;65.43;101616.89;1712665;83;25827;-74
2021/06/04 05:58:11;;;;;;;16.27;10.32;;;;;;;17.23;64.94;101607.45;1699732;82;26265;-75
2021/06/04 06:00:44;;;;;;;14.43;9.40;;;;;;;17.39;64.87;101607.55;1673753;82;26574;-75
2021/06/04 06:03:15;;;;;;;15.65;10.23;;;;;;;17.51;64.09;101610.01;1731016;81;28137;-75
2021/06/04 06:05:43;;;;;;;11.95;9.03;;;;;;;17.66;63.66;101615.52;1718492;81;26551;-75
2021/06/04 06:08:10;;;;;;;12.45;8.70;;;;;;;17.81;63.17;101616.69;1682276;81;25960;-75
2021/06/04 06:10:37;;;;;;;15.00;8.40;;;;;;;17.93;62.33;101616.35;1695410;80;25944;-76
2021/06/04 06:13:04;;;;;;;11.95;8.28;;;;;;;18.07;61.67;101617.18;1729127;80;25783;-75
2021/06/04 06:15:32;;;;;;;12.58;8.03;;;;;;;18.18;61.19;101618.70;1713089;83;28255;-75
2021/06/04 06:18:00;;;;;;;13.05;6.85;;;;;;;18.28;60.55;101624.52;1717300;80;25751;-75
2021/06/04 06:20:32;;;;;;;12.75;8.40;;;;;;;18.41;60.82;101622.31;1719928;80;25859;-75
2021/06/04 06:23:00;;;;;;;10.78;7.67;;;;;;;18.54;60.42;101621.47;1768839;80;25807;-75
2021/06/04 06:25:32;;;;;;;10.48;7.60;;;;;;;18.66;60.32;101622.46;1771047;80;26463;-75
2021/06/04 06:28:00;;;;;;;11.90;7.85;;;;;;;18.75;59.57;101623.37;1721277;80;27500;-75
2021/06/04 06:30:30;;;;;;;14.20;8.60;;;;;;;18.89;59.97;101630.92;1709589;80;26024;-75
2021/06/04 06:32:58;;;;;;;14.20;9.28;;;;;;;19.02;60.22;101631.70;1767998;80;25783;-75
2021/06/04 06:35:36;;;;;;;10.90;8.28;;;;;;;19.13;59.93;101632.89;1773167;80;25874;-75
2021/06/04 06:38:04;;;;;;;10.88;7.85;;;;;;;19.23;60.08;101628.64;1733295;80;26701;-75
2021/06/04 06:40:31;;;;;;;11.60;7.80;;;;;;;19.36;59.32;101633.19;1686533;82;27497;-75
2021/06/04 06:42:58;;;;;;;12.75;7.92;;;;;;;19.47;58.91;101631.66;1768852;80;25776;-75
2021/06/04 06:45:26;;;;;;;11.00;7.53;;;;;;;19.58;58.84;101630.43;1739553;80;25823;-76
2021/06/04 06:47:56;;;;;;;11.50;8.00;;;;;;;19.69;58.40;101632.44;1745861;80;25846;-75
2021/06/04 06:50:28;;;;;;;11.80;7.30;;;;;;;19.80;59.28;101633.05;1744594;80;26459;-76
2021/06/04 06:52:55;;;;;;;11.20;7.58;;;;;;;19.91;58.28;101630.13;1775967;80;27517;-75
2021/06/04 06:55:22;;;;;;;10.45;6.47;;;;;;;20.00;57.40;101632.88;1735640;80;25817;-76
2021/06/04 06:57:49;;;;;;;11.75;6.70;;;;;;;20.10;57.16;101636.47;1720437;80;25767;-75
2021/06/04 07:00:22;;;;;;;9.95;6.35;;;;;;;20.17;56.66;101638.57;1734031;80;25833;-76
2021/06/04 07:02:49;;;;;;;10.10;6.80;;;;;;;20.26;56.36;101635.90;1768786;80;26568;-75
2021/06/04 07:05:17;;;;;;;7.45;5.95;;;;;;;20.33;56.26;101627.98;1766495;80;27448;-76
2021/06/04 07:07:45;;;;;;;9.30;5.35;;;;;;;20.45;56.17;101634.86;1771499;79;25895;-75
2021/06/04 07:10:16;;;;;;;7.53;5.05;;;;;;;20.58;55.66;101631.98;1719699;80;26573;-76
2021/06/04 07:12:42;;;;;;;;;;;;;;;20.69;54.77;101636.67;1772250;80;26109;-76
2021/06/04 07:15:14;;;;;;;5.12;4.40;;;;;;;20.78;52.71;101630.39;1770000;80;25869;-76
2021/06/04 07:17:41;;;;;;;8.15;4.10;;;;;;;20.82;52.66;101630.23;1767503;80;27544;-75
2021/06/04 07:20:11;;;;;;;8.08;4.15;;;;;;;20.89;52.16;101632.34;1738629;80;25853;-76
2021/06/04 07:22:39;;;;;;;9.78;4.80;;;;;;;21.00;52.84;101632.38;1768593;80;25276;-76
2021/06/04 07:25:12;;;;;;;6.55;4.45;;;;;;;21.12;52.43;101635.20;1760500;80;25964;-76
2021/06/04 07:27:39;;;;;;;7.90;4.62;;;;;;;21.25;52.75;101636.38;1770273;80;25904;-76
2021/06/04 07:30:10;;;;;;;9.83;4.87;;;;;;;21.37;54.00;101636.72;1739227;80;27617;-75
2021/06/04 07:32:41;;;;;;;8.33;4.83;;;;;;;21.53;53.01;101633.03;1742712;80;25909;-76
2021/06/04 07:35:12;;;;;;;4.95;3.67;;;;;;;21.62;51.57;101637.09;1768987;80;25274;-75
2021/06/04 07:37:39;;;;;;;8.48;4.22;;;;;;;21.72;50.19;101635.44;1766021;79;26483;-76
2021/06/04 07:40:11;;;;;;;6.90;4.05;;;;;;;21.80;49.30;101636.45;1741627;79;26589;-75
2021/06/04 07:42:38;;;;;;;8.00;3.52;;;;;;;21.88;49.04;101640.22;1771666;80;27397;-76
2021/06/04 07:45:07;;;;;;;5.62;3.25;;;;;;;21.95;48.32;101633.30;1716652;81;25861;-75
2021/06/04 07:47:35;;;;;;;5.55;3.15;;;;;;;22.01;47.93;101631.81;1720831;81;26541;-75
2021/06/04 07:50:08;;;;;;;4.50;2.90;;;;;;;22.10;47.48;101628.20;1721689;80;26495;-76
2021/06/04 07:52:35;;;;;;;6.33;3.08;;;;;;;22.20;47.14;101631.98;1776708;79;25499;-76
2021/06/04 07:55:06;;;;;;;6.08;3.37;;;;;;;22.28;46.65;101627.52;1746559;80;27519;-74
2021/06/04 07:57:33;;;;;;;9.40;2.87;;;;;;;22.35;45.80;101626.03;1733469;80;25851;-75
2021/06/04 08:00:01;;;;;;;3.90;2.98;;;;;;;22.42;45.72;101619.92;1739856;80;25888;-76
2021/06/04 08:02:28;;;;;;;6.40;2.45;;;;;;;22.51;47.15;101616.28;1770850;80;25844;-75
2021/06/04 08:04:55;;;;;;;4.60;2.80;;;;;;;22.62;46.00;101608.64;1688588;80;25859;-76
2021/06/04 08:07:22;;;;;;;5.95;2.30;;;;;;;22.73;45.47;101608.59;1732875;80;27696;-75
2021/06/04 08:09:49;;;;;;;5.22;2.70;;;;;;;22.81;44.11;101606.86;1705570;80;25808;-75
2021/06/04 08:12:16;;;;;;;3.87;2.70;;;;;;;22.86;43.83;101603.41;1768051;80;26226;-75
2021/06/04 08:14:44;;;;;;;5.17;2.95;;;;;;;22.95;44.25;101604.66;1721141;80;25934;-76
2021/06/04 08:17:11;;;;;;;7.83;2.83;;;;;;;23.02;43.63;101605.34;1753893;80;25871;-76
2021/06/04 08:19:39;;;;;;;5.50;3.05;;;;;;;23.10;43.31;101611.78;1738344;80;27690;-76
2021/06/04 08:22:09;;;;;;;4.60;3.27;;;;;;;23.13;42.49;101605.00;1773138;79;25590;-76
2021/06/04 08:24:37;;;;;;;5.55;3.20;;;;;;;23.17;43.20;101607.00;1717722;80;25968;-75
2021/06/04 08:27:08;;;;;;;5.33;2.80;;;;;;;23.28;42.97;101602.55;1723388;80;26720;-76
2021/06/04 08:29:35;;;;;;;;;;;;;;;23.31;41.92;101598.77;1742804;80;25880;-76
2021/06/04 08:32:05;;;;;;;5.47;3.27;;;;;;;23.32;41.86;101598.23;1771496;80;27477;-76
2021/06/04 08:34:33;;;;;;;5.62;2.90;;;;;;;23.38;43.37;101599.48;1721507;80;26454;-75
2021/06/04 08:37:01;;;;;;;4.80;3.00;;;;;;;23.54;43.09;101606.89;1697295;80;26261;-75
2021/06/04 08:39:33;;;;;;;4.25;2.95;;;;;;;23.68;42.92;101600.53;1773756;79;26501;-75
2021/06/04 08:42:20;;;;;;;4.95;3.55;;;;;;;23.74;42.55;101596.27;1771146;80;25720;-75
2021/06/04 08:45:12;;;;;;;4.62;2.35;;;;;;;23.83;42.48;101598.04;1780641;79;27482;-75
2021/06/04 08:47:43;;;;;;;5.53;2.70;;;;;;;23.97;42.19;101601.27;1725031;80;25984;-75
2021/06/04 08:50:15;;;;;;;4.72;2.90;;;;;;;24.15;41.89;101600.48;1763314;79;25840;-75
2021/06/04 08:52:53;;;;;;;3.90;2.33;;;;;;;24.25;41.42;101600.61;1771579;80;26543;-75
2021/06/04 08:55:39;;;;;;;5.17;2.30;;;;;;;24.23;39.44;101600.60;1744409;80;25848;-75
2021/06/04 08:58:58;;;;;;;3.50;2.37;;;;;;;24.19;39.30;101600.78;1740044;80;27521;-75
2021/06/04 09:01:55;;;;;;;5.15;2.35;;;;;;;24.20;39.88;101599.19;1771077;80;25803;-75
2021/06/04 09:04:27;;;;;;;4.35;1.90;;;;;;;24.20;39.04;101596.45;1772694;80;25637;-75
2021/06/04 09:07:08;;;;;;;4.70;2.72;;;;;;;24.31;39.17;101587.83;1732658;82;25916;-75
2021/06/04 09:09:46;;;;;;;6.37;2.27;;;;;;;24.36;38.53;101588.72;1715555;80;26528;-76
2021/06/04 09:12:40;;;;;;;3.52;2.33;;;;;;;24.46;39.21;101584.73;1779515;80;27458;-76
2021/06/04 09:15:11;;;;;;;3.47;2.58;;;;;;;24.53;38.35;101579.90;1780047;80;25812;-76
2021/06/04 09:18:04;;;;;;;6.72;2.50;;;;;;;24.61;38.46;101581.38;1732274;80;25785;-75
2021/06/04 09:21:01;;;;;;;3.15;2.72;;;;;;;24.65;38.81;101583.89;1770546;80;26414;-76
2021/06/04 09:23:38;;;;;;;7.22;2.87;;;;;;;24.72;38.99;101575.48;1753595;80;25851;-76
2021/06/04 09:26:09;;;;;;;5.90;2.85;;;;;;;24.72;38.42;101572.17;1773763;80;27459;-76
2021/06/04 09:28:46;;;;;;;5.62;2.65;;;;;;;24.69;37.42;101571.86;1733747;80;26680;-76
2021/06/04 09:31:44;;;;;;;5.33;2.60;;;;;;;24.78;37.48;101567.62;1778503;80;25938;-76
2021/06/04 09:34:19;;;;;;;4.60;2.60;;;;;;;24.79;37.46;101567.89;1749434;80;25899;-77
2021/06/04 09:36:50;;;;;;;3.52;2.33;;;;;;;24.89;38.77;101561.98;1778921;80;26002;-76
2021/06/04 09:39:34;;;;;;;3.17;2.47;;;;;;;25.05;38.84;101565.72;1733657;80;28122;-76
2021/06/04 09:42:18;;;;;;;3.20;2.40;;;;;;;25.09;38.04;101561.37;1772982;80;25815;-76
2021/06/04 09:45:07;;;;;;;6.67;2.30;;;;;;;25.21;37.84;101566.16;1765652;80;25771;-76
2021/06/04 09:47:45;;;;;;;5.58;2.50;;;;;;;25.35;36.86;101566.00;1776396;80;25951;-77
2021/06/04 09:50:36;;;;;;;5.00;2.10;;;;;;;25.45;36.88;101562.00;1763129;80;25860;-76
2021/06/04 09:53:15;;;;;;;;;;;;;;;25.60;36.09;101561.32;1779408;80;27434;-77
2021/06/04 09:55:50;;;;;;;2.85;2.50;;;;;;;25.59;36.49;101561.02;1748302;80;25920;-76
2021/06/04 09:58:24;;;;;;;4.55;2.50;;;;;;;25.63;37.45;101553.91;1780385;80;26583;-77
2021/06/04 10:01:03;;;;;;;6.33;3.00;;;;;;;25.73;35.89;101562.22;1799034;78;25791;-76
2021/06/04 10:03:39;;;;;;;4.85;2.35;;;;;;;25.73;35.15;101560.30;1780194;80;25794;-75
2021/06/04 10:06:12;;;;;;;3.22;2.33;;;;;;;25.59;35.76;101561.02;1765396;80;27395;-76
2021/06/04 10:08:52;;;;;;;5.28;2.40;;;;;;;25.55;35.94;101560.73;1779673;80;25988;-76
2021/06/04 10:11:25;;;;;;;2.37;2.17;;;;;;;25.53;35.72;101556.59;1776230;80;25943;-75
2021/06/04 10:14:17;;;;;;;4.10;2.40;;;;;;;25.56;35.45;101552.77;1744336;81;25811;-75
2021/06/04 10:19:44;;;;;;;7.85;2.65;;;;;;;25.61;36.48;101558.84;1743872;81;27459;-76
2021/06/04 10:22:26;;;;;;;4.50;2.58;;;;;;;25.60;35.18;101555.27;1749006;81;26488;-75
2021/06/04 10:25:04;;;;;;;4.78;2.45;;;;;;;25.62;35.11;101553.08;1721733;81;25773;-76
2021/06/04 10:27:42;;;;;;;6.12;2.67;;;;;;;25.69;36.27;101549.58;1670404;82;25903;-76
2021/06/04 10:30:23;;;;;;;3.17;2.30;;;;;;;25.71;35.85;101552.05;1687276;84;26092;-76
2021/06/04 10:33:11;;;;;;;8.70;3.10;;;;;;;25.66;35.01;101549.29;1708239;83;27309;-75
2021/06/04 10:35:58;;;;;;;9.90;3.17;;;;;;;25.70;34.94;101548.50;1691903;84;26264;-75
2021/06/04 10:38:50;;;;;;;4.67;2.30;;;;;;;25.69;34.34;101540.51;1683431;83;26253;-76
2021/06/04 10:41:26;;;;;;;4.85;2.42;;;;;;;25.75;35.83;101544.94;1703174;83;25843;-75
2021/06/04 10:44:39;;;;;;;8.15;2.33;;;;;;;25.92;34.39;101538.73;1681635;83;25753;-75
2021/06/04 10:47:17;;;;;;;9.50;2.33;;;;;;;26.04;34.42;101538.00;1704425;83;27429;-75
2021/06/04 10:50:14;;;;;;;6.87;2.33;;;;;;;26.05;33.95;101544.33;1652012;84;25932;-75
2021/06/04 10:53:05;;;;;;;4.47;2.22;;;;;;;25.93;34.30;101543.15;1703048;83;25762;-75
2021/06/04 10:55:47;;;;;;;6.53;2.42;;;;;;;25.72;33.04;101542.73;1675269;83;26401;-75
2021/06/04 10:58:45;;;;;;;5.50;2.40;;;;;;;25.50;33.01;101542.84;1676152;84;25784;-75
2021/06/04 11:01:18;;;;;;;4.70;2.37;;;;;;;25.41;33.61;101532.03;1681334;83;27305;-76
2021/06/04 11:04:06;;;;;;;7.78;2.58;;;;;;;25.32;33.10;101530.06;1680716;83;25902;-75
2021/06/04 11:06:48;;;;;;;3.90;2.33;;;;;;;25.34;33.56;101530.62;1701243;83;25932;-76
2021/06/04 11:10:02;;;;;;;5.40;2.60;;;;;;;25.44;33.03;101532.09;1700043;83;26439;-75
2021/06/04 11:13:13;;;;;;;4.45;2.30;;;;;;;25.39;33.17;101531.48;1685188;82;25791;-75
2021/06/04 11:16:04;;;;;;;5.42;2.42;;;;;;;25.40;33.13;101528.20;1712176;82;27482;-76
2021/06/04 11:18:51;;;;;;;5.67;2.40;;;;;;;25.32;33.50;101522.63;1698205;82;26020;-75
2021/06/04 11:21:38;;;;;;;4.40;3.25;;;;;;;25.26;33.41;101515.45;1715935;82;26516;-76
2021/06/04 11:24:10;;;;;;;4.62;2.17;;;;;;;25.25;33.95;101515.19;1698068;82;26405;-75
2021/06/04 11:26:43;;;;;;;5.05;2.85;;;;;;;25.24;33.68;101514.89;1696302;82;25993;-75
2021/06/04 11:29:15;;;;;;;5.55;2.50;;;;;;;25.30;34.10;101515.78;1690320;82;28209;-76
2021/06/04 11:31:57;;;;;;;5.67;2.25;;;;;;;25.30;33.48;101516.58;1700038;83;25951;-75
2021/06/04 11:34:29;;;;;;;4.85;3.00;;;;;;;25.31;33.42;101506.45;1694525;82;26447;-75
2021/06/04 11:36:58;;;;;;;7.05;2.60;;;;;;;25.35;33.91;101507.57;1771396;80;26440;-75
2021/06/04 11:39:35;;;;;;;4.58;2.35;;;;;;;25.39;34.09;101508.70;1768809;80;26070;-75
2021/06/04 11:42:14;;;;;;;5.17;2.62;;;;;;;25.39;33.17;101505.95;1744795;80;28720;-75
2021/06/04 11:44:48;;;;;;;7.08;2.90;;;;;;;25.39;34.27;101504.05;1738970;80;25808;-75
2021/06/04 11:47:26;;;;;;;3.42;2.20;;;;;;;25.44;34.55;101498.64;1771530;80;25770;-75
2021/06/04 11:50:06;;;;;;;4.92;2.42;;;;;;;25.44;33.46;101493.69;1745072;80;25947;-75
2021/06/04 11:52:48;;;;;;;5.35;2.70;;;;;;;25.41;34.20;101491.42;1769802;79;26018;-75
2021/06/04 11:55:30;;;;;;;5.78;2.52;;;;;;;25.43;34.28;101491.48;1702885;80;28422;-75
2021/06/04 11:58:05;;;;;;;4.62;2.72;;;;;;;25.40;33.19;101492.53;1770648;80;25868;-75
2021/06/04 12:00:46;;;;;;;6.97;2.60;;;;;;;25.35;33.86;101491.11;1743629;80;25830;-75